Time;durP1;ratioP1;P1;durP2;ratioP2;P2;SDS_P1;SDS_P2;PMS_P1;PMS_P2;Temp;Humidity;BMP_temperature;BMP_pressure;BME280_temperature;BME280_humidity;BME280_pressure;Samples;Min_cycle;Max_cycle;Signal;HPM_P1;HPM_P2
2022/01/05 00:00:46;;;;;;;34.60;14.60;;;;;;;-6.04;67.95;98663.41;5096272;28;20110;-80
2022/01/05 00:03:13;;;;;;;35.38;14.65;;;;;;;-6.06;67.96;98675.16;5096281;28;20056;-81
2022/01/05 00:05:41;;;;;;;33.55;14.48;;;;;;;-6.28;67.68;98657.97;5063271;28;20547;-80
2022/01/05 00:08:08;;;;;;;35.88;15.23;;;;;;;-6.28;68.62;98692.66;5093908;28;20059;-82
2022/01/05 00:10:35;;;;;;;40.50;15.77;;;;;;;-6.16;68.30;98710.22;5093409;28;20051;-81
2022/01/05 00:13:02;;;;;;;41.15;16.50;;;;;;;-6.15;68.25;98704.31;5093559;28;20051;-82
2022/01/05 00:15:29;;;;;;;42.63;17.25;;;;;;;-6.23;68.42;98681.09;5098169;28;20051;-80
2022/01/05 00:17:56;;;;;;;37.55;16.25;;;;;;;-6.12;67.97;98713.00;5083449;28;20082;-80
2022/01/05 00:20:24;;;;;;;39.28;16.85;;;;;;;-6.12;68.41;98697.75;5098831;28;20055;-78
2022/01/05 00:22:51;;;;;;;36.38;16.52;;;;;;;-6.26;68.24;98675.81;5095809;28;20048;-80
2022/01/05 00:25:18;;;;;;;42.25;16.52;;;;;;;-6.07;68.25;98680.16;5096968;28;20048;-79
2022/01/05 00:27:45;;;;;;;36.53;15.88;;;;;;;-6.04;67.46;98691.38;5095326;28;20139;-80
2022/01/05 00:30:12;;;;;;;33.92;15.20;;;;;;;-6.13;68.31;98677.31;5093766;28;20471;-83
2022/01/05 00:32:40;;;;;;;38.97;16.00;;;;;;;-6.10;68.40;98685.13;5093683;28;20578;-82
2022/01/05 00:35:07;;;;;;;37.90;14.85;;;;;;;-6.10;68.35;98685.13;5074869;28;20051;-82
2022/01/05 00:37:34;;;;;;;32.60;15.02;;;;;;;-6.10;68.30;98680.91;5093369;28;20052;-80
2022/01/05 00:40:02;;;;;;;43.28;15.00;;;;;;;-6.04;68.09;98683.75;5093822;28;20056;-82
2022/01/05 00:42:29;;;;;;;33.03;15.25;;;;;;;-6.11;68.09;98666.41;5093195;28;20485;-80
2022/01/05 00:44:56;;;;;;;34.53;14.80;;;;;;;-6.01;67.90;98670.31;5076038;28;20135;-79
2022/01/05 00:47:23;;;;;;;38.53;15.88;;;;;;;-5.97;67.88;98700.19;5076148;28;20071;-83
2022/01/05 00:49:50;;;;;;;38.10;15.15;;;;;;;-6.05;67.70;98681.97;5095195;28;20547;-82
2022/01/05 00:52:17;;;;;;;34.40;14.50;;;;;;;-5.99;68.36;98706.84;5076817;28;20109;-83
2022/01/05 00:54:45;;;;;;;32.95;14.75;;;;;;;-6.05;67.66;98701.47;5093312;28;20051;-83
2022/01/05 00:57:12;;;;;;;35.95;15.23;;;;;;;-6.14;68.06;98695.91;5093575;28;20051;-83
2022/01/05 00:59:39;;;;;;;35.92;15.57;;;;;;;-6.16;68.51;98694.97;5093489;28;20105;-81
2022/01/05 01:02:06;;;;;;;37.95;15.40;;;;;;;-6.06;68.15;98694.66;5093283;28;20052;-82
2022/01/05 01:04:34;;;;;;;39.85;16.00;;;;;;;-6.11;68.02;98671.50;5092871;28;20047;-82
2022/01/05 01:07:01;;;;;;;46.05;16.48;;;;;;;-5.95;68.65;98692.63;5075219;28;20479;-80
2022/01/05 01:09:27;;;;;;;41.45;16.42;;;;;;;-5.87;67.90;98689.63;5075606;28;20135;-80
2022/01/05 01:11:55;;;;;;;45.45;16.88;;;;;;;-5.91;67.97;98700.47;5093439;28;20152;-82
2022/01/05 01:14:21;;;;;;;35.63;15.05;;;;;;;-5.89;67.75;98678.53;5093154;28;20429;-82
2022/01/05 01:16:48;;;;;;;37.83;15.55;;;;;;;-5.92;68.15;98688.53;5093782;28;20155;-82
2022/01/05 01:19:15;;;;;;;31.75;14.27;;;;;;;-6.01;68.19;98676.25;5093298;28;20485;-80
2022/01/05 01:21:43;;;;;;;34.17;14.48;;;;;;;-5.91;67.91;98687.75;5094322;28;20087;-79
2022/01/05 01:24:09;;;;;;;36.53;14.70;;;;;;;-5.97;68.00;98680.69;5097013;28;20052;-82
2022/01/05 01:26:36;;;;;;;38.70;15.88;;;;;;;-6.01;68.07;98677.94;5093593;28;20146;-83
2022/01/05 01:29:03;;;;;;;34.53;13.25;;;;;;;-6.00;67.99;98665.31;5075452;28;20109;-82
2022/01/05 01:31:30;;;;;;;34.70;13.27;;;;;;;-6.02;68.36;98671.13;5093222;28;20050;-80
2022/01/05 01:33:58;;;;;;;30.63;14.13;;;;;;;-5.98;68.22;98657.72;5093411;28;20051;-81
2022/01/05 01:36:25;;;;;;;35.92;15.32;;;;;;;-5.97;68.14;98655.28;5093682;28;20048;-83
2022/01/05 01:38:52;;;;;;;33.58;14.38;;;;;;;-5.78;68.18;98666.31;5094447;28;20106;-82
2022/01/05 01:41:19;;;;;;;35.58;14.55;;;;;;;-5.80;68.21;98666.25;5102901;28;20090;-81
2022/01/05 01:43:46;;;;;;;33.55;13.88;;;;;;;-5.81;68.06;98672.13;5078511;28;20478;-82
2022/01/05 01:46:13;;;;;;;33.63;14.75;;;;;;;-5.78;67.98;98664.66;5096230;28;20047;-83
2022/01/05 01:48:40;;;;;;;35.45;13.63;;;;;;;-5.90;67.68;98648.78;5078231;28;20056;-80
2022/01/05 01:51:07;;;;;;;33.13;14.20;;;;;;;-5.79;67.94;98660.34;5096467;28;20147;-80
2022/01/05 01:53:34;;;;;;;37.35;13.85;;;;;;;-5.77;68.12;98657.88;5078073;28;20546;-82
2022/01/05 01:56:04;;;;;;;33.42;13.90;;;;;;;-5.89;67.60;98644.56;5080339;28;20074;-80
2022/01/05 01:58:34;;;;;;;34.33;13.07;;;;;;;-5.78;67.86;98653.59;5075938;28;20049;-79
2022/01/05 02:01:01;;;;;;;33.60;13.90;;;;;;;-5.80;67.50;98650.97;5075761;28;20060;-80
2022/01/05 02:03:28;;;;;;;34.13;13.40;;;;;;;-5.98;67.57;98609.41;5076003;28;20052;-81
2022/01/05 02:05:56;;;;;;;31.58;12.15;;;;;;;-5.98;67.50;98619.59;5075818;28;20060;-82
2022/01/05 02:08:23;;;;;;;30.42;13.20;;;;;;;-6.04;67.66;98612.56;5075967;28;20059;-82
2022/01/05 02:10:51;;;;;;;36.08;13.82;;;;;;;-6.05;67.89;98620.97;5076216;28;20315;-83
2022/01/05 02:13:18;;;;;;;31.17;12.88;;;;;;;-6.05;68.51;98610.78;5059453;28;20148;-81
2022/01/05 02:15:45;;;;;;;37.70;13.38;;;;;;;-6.03;68.03;98624.44;5083566;28;20044;-79
2022/01/05 02:21:08;;;;;;;34.53;13.43;;;;;;;-6.22;67.97;98593.84;5097568;28;20056;-78
2022/01/05 02:23:37;;;;;;;27.85;12.02;;;;;;;-6.07;68.30;98606.44;5096189;28;20048;-82
2022/01/05 02:26:06;;;;;;;32.53;13.13;;;;;;;-6.15;68.54;98618.78;5080752;28;20052;-79
2022/01/05 02:28:33;;;;;;;33.88;12.60;;;;;;;-6.09;68.74;98610.56;5075606;28;20056;-80
2022/01/05 02:31:01;;;;;;;27.95;12.05;;;;;;;-6.13;68.19;98599.41;5075882;28;20056;-80
2022/01/05 02:33:28;;;;;;;33.97;13.57;;;;;;;-6.20;67.84;98594.78;5075674;28;20125;-80
2022/01/05 02:35:55;;;;;;;30.67;13.13;;;;;;;-6.20;68.44;98589.72;5074882;28;20525;-81
2022/01/05 02:38:22;;;;;;;35.45;13.60;;;;;;;-6.22;68.12;98601.47;5075295;28;20060;-82
2022/01/05 02:40:51;;;;;;;36.15;13.55;;;;;;;-6.23;68.72;98592.97;5057686;28;20056;-80
2022/01/05 02:43:18;;;;;;;36.72;12.50;;;;;;;-6.29;68.48;98585.03;5075650;28;20049;-81
2022/01/05 02:45:45;;;;;;;29.92;12.10;;;;;;;-6.25;68.67;98589.50;5075181;28;20569;-81
2022/01/05 02:48:12;;;;;;;34.00;12.45;;;;;;;-6.30;68.33;98578.22;5075421;28;20056;-83
2022/01/05 02:50:39;;;;;;;33.45;13.68;;;;;;;-6.30;68.54;98575.69;5074478;28;20048;-82
2022/01/05 02:53:06;;;;;;;35.75;13.07;;;;;;;-6.25;68.54;98573.38;5074820;28;20058;-82
2022/01/05 02:55:33;;;;;;;37.40;14.88;;;;;;;-6.28;68.54;98576.66;5063174;28;20097;-80
2022/01/05 02:58:00;;;;;;;34.00;12.95;;;;;;;-6.25;68.29;98573.38;5095281;28;20056;-82
2022/01/05 03:00:27;;;;;;;33.70;13.93;;;;;;;-6.32;68.14;98561.13;5094881;28;20055;-78
2022/01/05 03:02:54;;;;;;;32.83;12.63;;;;;;;-6.16;68.32;98588.19;5094826;28;20074;-79
2022/01/05 03:05:21;;;;;;;38.22;14.20;;;;;;;-6.15;68.33;98572.13;5094941;28;20105;-82
2022/01/05 03:07:48;;;;;;;34.15;12.40;;;;;;;-6.08;68.16;98577.59;5076618;28;20063;-79
2022/01/05 03:10:15;;;;;;;31.73;12.57;;;;;;;-6.09;68.43;98575.84;5077279;28;20056;-81
2022/01/05 03:12:43;;;;;;;35.45;13.57;;;;;;;-6.12;68.24;98583.34;5094804;28;20101;-79
2022/01/05 03:15:11;;;;;;;30.33;12.93;;;;;;;-6.04;69.04;98571.00;5095715;28;20121;-80
2022/01/05 03:17:39;;;;;;;31.00;11.57;;;;;;;-6.03;68.26;98560.88;5094908;28;20055;-79
2022/01/05 03:20:07;;;;;;;32.58;12.40;;;;;;;-6.05;68.53;98567.56;5094698;28;20059;-80
2022/01/05 03:22:34;;;;;;;31.20;11.93;;;;;;;-6.09;67.97;98558.03;5094594;28;20050;-81
2022/01/05 03:25:01;;;;;;;31.63;11.43;;;;;;;-6.04;68.47;98558.28;5095318;28;20083;-81
2022/01/05 03:27:29;;;;;;;28.88;11.60;;;;;;;-6.11;68.36;98553.69;5094977;28;20059;-81
2022/01/05 03:29:56;;;;;;;33.67;12.27;;;;;;;-6.26;68.20;98542.00;5094853;28;20101;-79
2022/01/05 03:32:24;;;;;;;29.88;11.85;;;;;;;-6.36;68.80;98537.25;5095544;28;20055;-84
2022/01/05 03:34:52;;;;;;;31.80;13.02;;;;;;;-6.46;69.26;98528.31;5095408;28;20101;-82
2022/01/05 03:37:19;;;;;;;32.38;11.70;;;;;;;-6.29;68.60;98556.22;5095351;28;20485;-82
2022/01/05 03:39:46;;;;;;;31.73;13.07;;;;;;;-6.37;68.63;98550.75;5104673;28;20108;-81
2022/01/05 03:42:13;;;;;;;28.83;12.77;;;;;;;-6.28;68.39;98538.50;5077429;28;20075;-81
2022/01/05 03:44:39;;;;;;;35.40;12.20;;;;;;;-6.34;68.53;98538.22;5094534;28;20055;-80
2022/01/05 03:47:07;;;;;;;34.92;12.48;;;;;;;-6.24;68.49;98563.28;5094500;28;20058;-81
2022/01/05 03:49:34;;;;;;;29.25;11.00;;;;;;;-6.28;68.64;98563.94;5059344;28;20079;-82
2022/01/05 03:52:03;;;;;;;33.78;11.75;;;;;;;-6.26;68.48;98559.81;5096982;28;20105;-80
2022/01/05 03:54:29;;;;;;;30.67;12.30;;;;;;;-6.51;68.60;98526.34;5094058;28;20078;-80
2022/01/05 03:56:56;;;;;;;31.73;11.85;;;;;;;-6.43;68.72;98558.06;5093922;28;20052;-84
2022/01/05 03:59:23;;;;;;;34.15;11.60;;;;;;;-6.40;68.88;98548.94;5094330;28;20109;-81
2022/01/05 04:01:50;;;;;;;29.92;11.05;;;;;;;-6.46;68.61;98533.38;5093403;28;20070;-80
2022/01/05 04:04:17;;;;;;;27.25;10.48;;;;;;;-6.39;68.71;98542.19;5093652;28;20060;-80
2022/01/05 04:06:44;;;;;;;26.23;11.60;;;;;;;-6.33;68.92;98545.03;5093960;28;20052;-81
2022/01/05 04:09:11;;;;;;;30.55;12.43;;;;;;;-6.32;68.56;98546.78;5093980;28;20052;-79
2022/01/05 04:11:38;;;;;;;28.67;10.43;;;;;;;-6.33;68.68;98541.63;5079917;28;20098;-79
2022/01/05 04:14:05;;;;;;;27.33;10.45;;;;;;;-6.31;68.58;98535.81;5055597;28;20053;-81
2022/01/05 04:16:32;;;;;;;31.02;10.35;;;;;;;-6.38;68.65;98529.56;5073545;28;20068;-80
2022/01/05 04:18:59;;;;;;;28.10;10.82;;;;;;;-6.36;68.58;98523.69;5073314;28;20083;-80
2022/01/05 04:21:26;;;;;;;24.13;9.73;;;;;;;-6.30;69.02;98536.66;5073443;28;20436;-83
2022/01/05 04:23:53;;;;;;;26.75;11.25;;;;;;;-6.36;68.60;98531.31;5055757;28;20098;-81
2022/01/05 04:26:19;;;;;;;27.38;11.00;;;;;;;-6.64;68.51;98480.03;5073914;28;20060;-81
2022/01/05 04:28:46;;;;;;;23.00;9.70;;;;;;;-6.31;68.49;98540.03;5073440;28;20052;-81
2022/01/05 04:31:13;;;;;;;25.17;9.75;;;;;;;-6.41;68.52;98526.88;5079339;28;20395;-81
2022/01/05 04:33:40;;;;;;;23.45;10.02;;;;;;;-6.28;68.72;98533.44;5088507;28;20052;-82
2022/01/05 04:36:27;;;;;;;28.33;9.43;;;;;;;-6.37;68.63;98515.19;5088031;28;20058;-81
2022/01/05 04:38:55;;;;;;;23.00;10.70;;;;;;;-6.32;68.91;98512.84;5093330;28;20083;-80
2022/01/05 04:41:22;;;;;;;23.27;9.65;;;;;;;-6.31;68.36;98510.38;5073179;28;20581;-79
2022/01/05 04:43:48;;;;;;;22.85;9.52;;;;;;;-6.24;68.76;98516.63;5073237;28;20110;-83
2022/01/05 04:46:15;;;;;;;25.02;9.75;;;;;;;-6.25;68.80;98495.44;5076608;28;20429;-79
2022/01/05 04:48:42;;;;;;;26.65;9.85;;;;;;;-6.53;68.62;98455.13;5079460;28;20060;-81
2022/01/05 04:51:09;;;;;;;28.23;11.65;;;;;;;-6.40;68.56;98480.31;5079497;28;20118;-80
2022/01/05 04:53:36;;;;;;;25.10;9.82;;;;;;;-6.38;68.62;98491.44;5080963;28;20086;-79
2022/01/05 04:56:04;;;;;;;25.00;9.38;;;;;;;-6.37;68.97;98489.75;5080734;28;20049;-80
2022/01/05 04:58:31;;;;;;;23.25;9.95;;;;;;;-6.32;68.69;98498.50;5080021;28;20048;-81
2022/01/05 05:00:58;;;;;;;25.77;10.05;;;;;;;-6.35;68.26;98507.63;5061515;28;20114;-82
2022/01/05 05:03:25;;;;;;;25.75;10.15;;;;;;;-6.41;69.00;98473.53;5073001;28;20148;-79
2022/01/05 05:05:52;;;;;;;24.60;10.73;;;;;;;-6.27;68.49;98486.88;5072636;28;20579;-81
2022/01/05 05:08:19;;;;;;;26.20;10.38;;;;;;;-6.26;68.68;98486.09;5056299;28;20059;-81
2022/01/05 05:10:46;;;;;;;29.42;10.85;;;;;;;-6.33;68.87;98496.75;5074407;28;20049;-82
2022/01/05 05:13:13;;;;;;;29.35;10.45;;;;;;;-6.39;68.80;98492.25;5074115;28;20076;-79
2022/01/05 05:15:40;;;;;;;25.20;9.57;;;;;;;-6.31;68.60;98497.69;5077718;28;20052;-79
2022/01/05 05:18:07;;;;;;;27.65;10.35;;;;;;;-6.42;68.44;98471.75;5059609;28;20072;-79
2022/01/05 05:20:34;;;;;;;25.35;9.40;;;;;;;-6.34;68.57;98495.00;5080321;28;20052;-82
2022/01/05 05:23:02;;;;;;;26.98;10.18;;;;;;;-6.33;68.75;98490.78;5097170;28;20559;-81
2022/01/05 05:25:29;;;;;;;30.67;10.77;;;;;;;-6.44;68.59;98460.66;5097130;28;20047;-82
2022/01/05 05:27:56;;;;;;;25.20;10.25;;;;;;;-6.48;69.19;98478.22;5096682;28;20497;-81
2022/01/05 05:30:33;;;;;;;26.38;11.07;;;;;;;-6.47;69.03;98479.97;5078904;28;20059;-78
2022/01/05 05:33:00;;;;;;;21.58;9.70;;;;;;;-6.56;69.28;98471.88;5096619;28;20596;-80
2022/01/05 05:35:27;;;;;;;24.45;9.20;;;;;;;-6.48;68.99;98480.75;5098241;28;20101;-82
2022/01/05 05:37:55;;;;;;;25.75;9.98;;;;;;;-6.53;69.20;98465.31;5103524;28;20099;-79
2022/01/05 05:40:24;;;;;;;24.83;8.93;;;;;;;-6.36;68.31;98471.19;5098109;28;20074;-81
2022/01/05 05:42:51;;;;;;;25.35;9.38;;;;;;;-6.47;68.54;98444.41;5096592;28;20052;-81
2022/01/05 05:45:18;;;;;;;27.15;10.20;;;;;;;-6.46;68.55;98454.63;5096684;28;20070;-84
2022/01/05 05:47:45;;;;;;;25.17;10.68;;;;;;;-6.60;68.75;98428.56;5096668;28;20060;-79
2022/01/05 05:50:12;;;;;;;26.48;10.10;;;;;;;-6.52;69.09;98456.00;5096781;28;20071;-80
2022/01/05 05:52:39;;;;;;;24.50;9.63;;;;;;;-6.58;69.14;98446.44;5096642;28;20083;-80
2022/01/05 05:55:06;;;;;;;23.65;8.98;;;;;;;-6.70;69.43;98428.06;5096452;28;20044;-78
2022/01/05 05:57:43;;;;;;;24.88;10.07;;;;;;;-6.64;69.63;98428.34;5096620;28;20048;-81
2022/01/05 06:00:11;;;;;;;21.98;9.40;;;;;;;-6.64;69.43;98428.34;5078197;28;20052;-81
2022/01/05 06:02:38;;;;;;;23.67;9.55;;;;;;;-6.59;69.52;98434.50;5096907;28;20115;-81
2022/01/05 06:05:06;;;;;;;30.98;10.30;;;;;;;-6.53;68.93;98432.28;5096000;28;20143;-82
2022/01/05 06:07:33;;;;;;;31.00;11.10;;;;;;;-6.48;69.10;98420.66;5092098;28;20139;-81
2022/01/05 06:10:00;;;;;;;24.75;10.50;;;;;;;-6.40;69.02;98423.56;5057975;28;20461;-82
2022/01/05 06:12:28;;;;;;;23.80;10.93;;;;;;;-6.39;69.25;98416.00;5057654;28;20060;-81
2022/01/05 06:14:57;;;;;;;26.45;9.38;;;;;;;-6.37;68.92;98413.53;5058345;28;20086;-81
2022/01/05 06:17:24;;;;;;;24.95;9.77;;;;;;;-6.37;69.15;98408.44;5076163;28;20111;-80
2022/01/05 06:19:51;;;;;;;24.27;9.65;;;;;;;-6.32;68.76;98407.00;5078782;28;20110;-82
2022/01/05 06:22:18;;;;;;;26.38;9.70;;;;;;;-6.42;68.98;98380.28;5078393;28;20044;-80
2022/01/05 06:24:48;;;;;;;23.67;8.98;;;;;;;-6.29;69.35;98398.66;5087450;28;20051;-83
2022/01/05 06:27:16;;;;;;;20.50;8.57;;;;;;;-6.45;69.01;98386.91;5099492;28;20056;-81
2022/01/05 06:29:43;;;;;;;21.48;9.45;;;;;;;-6.43;69.37;98393.81;5095747;28;20063;-81
2022/01/05 06:32:10;;;;;;;21.23;8.73;;;;;;;-6.36;69.29;98394.09;5095873;28;20047;-83
2022/01/05 06:34:37;;;;;;;24.70;9.52;;;;;;;-6.33;69.09;98397.63;5096051;28;20063;-83
2022/01/05 06:37:06;;;;;;;21.23;7.90;;;;;;;-6.20;68.86;98402.47;5096012;28;20574;-82
2022/01/05 06:39:33;;;;;;;22.25;8.43;;;;;;;-6.26;69.06;98407.28;5095438;28;20502;-81
2022/01/05 06:42:00;;;;;;;17.55;7.88;;;;;;;-6.35;68.98;98395.81;5095247;28;20047;-79
2022/01/05 06:44:27;;;;;;;22.05;8.40;;;;;;;-6.36;69.10;98400.03;5092126;28;20098;-83
2022/01/05 06:46:59;;;;;;;20.02;8.50;;;;;;;-6.42;69.04;98379.41;5075774;28;20082;-80
2022/01/05 06:49:26;;;;;;;18.88;8.43;;;;;;;-6.21;68.88;98398.19;5086302;28;20053;-83
2022/01/05 06:51:53;;;;;;;19.08;7.82;;;;;;;-6.10;68.51;98405.44;5081649;28;20060;-84
2022/01/05 06:54:20;;;;;;;20.85;8.88;;;;;;;-6.10;68.74;98406.31;5092008;28;20139;-83
2022/01/05 06:56:47;;;;;;;19.00;7.88;;;;;;;-6.14;68.79;98381.53;5080164;28;20044;-83
2022/01/05 06:59:14;;;;;;;21.90;8.93;;;;;;;-5.95;68.61;98405.28;5086356;28;20075;-83
2022/01/05 07:01:41;;;;;;;19.60;8.75;;;;;;;-6.11;68.32;98391.84;5091001;28;20121;-87
2022/01/05 07:04:08;;;;;;;22.35;8.57;;;;;;;-6.06;68.46;98392.94;5096451;28;20067;-83
2022/01/05 07:06:35;;;;;;;21.27;8.32;;;;;;;-6.24;68.09;98374.28;5095903;28;20059;-89
2022/01/05 07:09:03;;;;;;;18.35;7.47;;;;;;;-5.92;68.15;98387.56;5097808;28;20429;-86
2022/01/05 07:11:31;;;;;;;23.58;9.18;;;;;;;-5.98;68.08;98396.72;5099406;28;20120;-86
2022/01/05 07:13:59;;;;;;;23.63;8.60;;;;;;;-6.06;68.91;98380.22;5104889;28;20060;-85
2022/01/05 07:16:26;;;;;;;19.58;8.02;;;;;;;-6.05;68.07;98384.50;5067151;28;20150;-84
2022/01/05 07:18:53;;;;;;;19.77;8.38;;;;;;;-6.10;68.36;98383.44;5061029;28;20532;-83
2022/01/05 07:21:20;;;;;;;20.00;8.07;;;;;;;-6.16;68.51;98380.59;5077783;28;20059;-85
2022/01/05 07:23:47;;;;;;;22.02;8.15;;;;;;;-6.13;68.54;98370.59;5095412;28;20421;-90
2022/01/05 07:26:14;;;;;;;22.95;8.00;;;;;;;-6.13;68.38;98368.06;5076748;28;20140;-88
2022/01/05 07:28:42;;;;;;;24.08;9.20;;;;;;;-6.00;68.63;98360.16;5078289;28;20076;-84
2022/01/05 07:31:09;;;;;;;20.05;9.05;;;;;;;-5.97;68.54;98354.34;5058903;28;20048;-87
2022/01/05 07:33:36;;;;;;;20.40;8.43;;;;;;;-5.93;68.24;98355.31;5075269;28;20123;-85
2022/01/05 07:36:05;;;;;;;17.83;8.27;;;;;;;-5.98;68.48;98358.56;5060161;28;20525;-86
2022/01/05 07:38:32;;;;;;;19.98;8.98;;;;;;;-6.04;68.43;98350.66;5076118;28;20053;-87
2022/01/05 07:40:59;;;;;;;23.67;8.93;;;;;;;-6.19;68.62;98314.38;5079222;28;20052;-86
2022/01/05 07:43:26;;;;;;;22.38;7.82;;;;;;;-6.03;68.67;98362.56;5083407;28;20138;-84
2022/01/05 07:45:54;;;;;;;20.08;8.65;;;;;;;-6.08;68.40;98319.94;5064133;28;20058;-82
2022/01/05 07:48:21;;;;;;;23.05;8.80;;;;;;;-5.94;68.71;98333.25;5075216;28;20117;-86
2022/01/05 07:50:48;;;;;;;23.35;9.43;;;;;;;-5.79;68.31;98337.28;5085901;28;20040;-86
2022/01/05 07:53:16;;;;;;;21.65;8.82;;;;;;;-5.72;68.06;98337.56;5094399;28;20075;-85
2022/01/05 07:55:43;;;;;;;21.25;9.10;;;;;;;-5.64;67.78;98337.06;5094492;28;20051;-83
2022/01/05 07:58:10;;;;;;;26.65;9.68;;;;;;;-5.68;67.65;98317.41;5076406;28;20052;-84
2022/01/05 08:00:38;;;;;;;22.30;8.73;;;;;;;-5.75;67.91;98320.50;5093895;28;20143;-87
2022/01/05 08:03:06;;;;;;;21.77;9.18;;;;;;;-5.66;68.11;98323.41;5079376;28;20083;-83
2022/01/05 08:05:36;;;;;;;23.33;8.43;;;;;;;-5.68;68.05;98312.31;5092754;28;20040;-83
2022/01/05 08:08:03;;;;;;;20.48;7.55;;;;;;;-5.72;68.32;98307.94;5093509;28;20098;-82
2022/01/05 08:10:30;;;;;;;21.77;7.90;;;;;;;-5.70;68.47;98303.78;5073965;28;20056;-83
2022/01/05 08:12:58;;;;;;;21.23;8.75;;;;;;;-5.61;67.93;98299.06;5075178;28;20087;-83
2022/01/05 08:15:25;;;;;;;20.50;8.50;;;;;;;-5.58;67.89;98275.41;5076167;28;20052;-82
2022/01/05 08:17:52;;;;;;;26.05;9.45;;;;;;;-5.46;67.95;98288.66;5073659;28;20059;-83
2022/01/05 08:20:19;;;;;;;28.10;9.20;;;;;;;-5.40;67.86;98272.75;5055196;28;20056;-82
2022/01/05 08:22:46;;;;;;;23.77;8.75;;;;;;;-5.39;68.28;98277.91;5072648;28;20498;-83
2022/01/05 08:25:16;;;;;;;23.83;9.23;;;;;;;-5.43;67.94;98265.00;5054961;28;20059;-85
2022/01/05 08:27:47;;;;;;;26.63;8.88;;;;;;;-5.82;68.41;98201.50;5072683;28;20152;-84
2022/01/05 08:30:20;;;;;;;21.95;8.88;;;;;;;-5.52;68.23;98242.59;5073246;28;20133;-84
2022/01/05 08:32:48;;;;;;;24.33;8.80;;;;;;;-5.41;68.33;98228.63;5073442;28;20084;-84
2022/01/05 08:35:17;;;;;;;21.38;9.00;;;;;;;-5.38;68.50;98227.88;5073952;28;20151;-84
2022/01/05 08:37:44;;;;;;;21.45;8.95;;;;;;;-5.37;68.72;98233.03;5074088;28;20504;-83
2022/01/05 08:40:18;;;;;;;25.48;10.05;;;;;;;-5.39;68.74;98231.22;5056159;28;20143;-87
2022/01/05 08:42:45;;;;;;;16.40;7.68;;;;;;;-5.45;69.40;98223.34;5073328;28;20571;-82
2022/01/05 08:45:15;;;;;;;24.83;8.90;;;;;;;-5.54;69.44;98203.50;5055826;28;20102;-80
2022/01/05 08:47:47;;;;;;;20.70;8.88;;;;;;;-5.59;70.19;98199.91;5055242;28;20520;-82
2022/01/05 08:50:20;;;;;;;17.00;7.90;;;;;;;-5.83;69.96;98161.59;5072756;28;20455;-81
2022/01/05 08:52:47;;;;;;;22.38;8.55;;;;;;;-5.57;69.83;98193.16;5073693;28;20044;-82
2022/01/05 08:55:17;;;;;;;23.85;8.95;;;;;;;-5.51;70.50;98175.63;5072919;28;20057;-84
2022/01/05 08:57:44;;;;;;;22.10;9.38;;;;;;;-5.35;70.03;98182.19;5073164;28;20111;-80
2022/01/05 09:00:12;;;;;;;25.15;10.45;;;;;;;-5.23;70.22;98179.25;5055712;28;20049;-83
2022/01/05 09:02:40;;;;;;;20.48;8.98;;;;;;;-5.33;69.78;98159.31;5075255;28;20049;-84
2022/01/05 09:05:08;;;;;;;19.05;8.73;;;;;;;-5.28;70.66;98173.97;5038910;28;20083;-82
2022/01/05 09:07:35;;;;;;;23.95;9.10;;;;;;;-5.27;70.49;98173.19;5072751;28;20148;-83
2022/01/05 09:10:04;;;;;;;21.85;8.55;;;;;;;-5.34;70.91;98153.38;5054419;28;20055;-82
2022/01/05 09:12:32;;;;;;;23.38;9.57;;;;;;;-5.35;70.68;98152.50;5072220;28;20098;-83
2022/01/05 09:15:00;;;;;;;21.13;8.65;;;;;;;-5.38;70.96;98146.41;5072167;28;20098;-82
2022/01/05 09:17:27;;;;;;;22.80;9.18;;;;;;;-5.40;71.11;98143.84;5072416;28;20057;-82
2022/01/05 09:19:55;;;;;;;18.58;8.40;;;;;;;-5.38;71.24;98115.88;5072529;28;20060;-83
2022/01/05 09:22:23;;;;;;;23.63;9.20;;;;;;;-5.45;70.94;98122.41;5072953;28;20056;-82
2022/01/05 09:24:52;;;;;;;23.67;9.32;;;;;;;-5.32;71.45;98120.34;5073025;28;20048;-82
2022/01/05 09:27:20;;;;;;;20.40;8.68;;;;;;;-5.21;71.22;98113.97;5054997;28;20558;-82
2022/01/05 09:29:47;;;;;;;19.73;9.32;;;;;;;-5.27;71.14;98107.00;5073053;28;20056;-81
2022/01/05 09:32:15;;;;;;;22.52;9.82;;;;;;;-5.28;71.14;98097.59;5061900;28;20059;-82
2022/01/05 09:34:45;;;;;;;21.00;9.00;;;;;;;-5.41;71.24;98067.41;5089371;28;20482;-83
2022/01/05 09:37:20;;;;;;;17.48;7.68;;;;;;;-5.39;71.23;98075.97;5082942;28;20139;-82
2022/01/05 09:42:34;;;;;;;21.33;9.10;;;;;;;-5.30;71.88;98043.22;5057847;28;20118;-82
2022/01/05 09:45:11;;;;;;;24.10;9.43;;;;;;;-5.21;71.38;98035.91;5072314;28;20056;-83
2022/01/05 09:47:57;;;;;;;20.17;8.90;;;;;;;-5.11;71.34;98049.84;5072156;28;20048;-82
2022/01/05 09:50:31;;;;;;;19.38;8.48;;;;;;;-5.12;71.44;98039.59;5073696;28;20045;-81
2022/01/05 09:52:58;;;;;;;;;;;;;;;-5.11;71.20;98033.72;5075084;28;20398;-82
2022/01/05 09:55:25;;;;;;;19.83;8.43;;;;;;;-5.24;71.32;98027.31;5056961;28;19940;-82
2022/01/05 09:57:52;;;;;;;21.50;8.40;;;;;;;-5.35;71.86;98016.75;5074876;28;20048;-81
2022/01/05 10:00:19;;;;;;;21.92;9.65;;;;;;;-5.38;71.91;98007.34;5060644;28;20124;-81
2022/01/05 10:02:49;;;;;;;20.88;8.63;;;;;;;-5.26;71.63;98004.34;5062384;28;20052;-83
2022/01/05 10:05:17;;;;;;;19.85;7.90;;;;;;;-5.49;71.47;97967.88;5075056;28;20076;-82
2022/01/05 10:07:44;;;;;;;21.98;8.80;;;;;;;-5.28;72.07;97993.25;5075411;28;20146;-81
2022/01/05 10:10:12;;;;;;;24.35;9.68;;;;;;;-5.31;72.38;97985.50;5075351;28;20149;-82
2022/01/05 10:12:39;;;;;;;22.55;9.35;;;;;;;-5.38;72.27;97966.63;5075776;28;20084;-83
2022/01/05 10:15:13;;;;;;;18.58;8.77;;;;;;;-5.35;72.40;97976.88;5075349;28;20070;-82
2022/01/05 10:17:41;;;;;;;23.77;10.00;;;;;;;-5.48;72.21;97954.38;5075760;28;20167;-82
2022/01/05 10:20:11;;;;;;;21.08;8.70;;;;;;;-5.39;72.88;97951.28;5075860;28;20186;-83
2022/01/05 10:22:44;;;;;;;26.08;9.85;;;;;;;-5.47;72.94;97934.88;5078989;28;20106;-81
2022/01/05 10:25:21;;;;;;;25.40;10.38;;;;;;;-5.46;73.27;97940.03;5078268;28;20075;-82
2022/01/05 10:27:56;;;;;;;22.50;9.73;;;;;;;-5.46;72.93;97936.59;5078699;28;20056;-81
2022/01/05 10:30:40;;;;;;;27.08;10.15;;;;;;;-5.50;73.47;97932.22;5059146;28;20064;-81
2022/01/05 10:33:08;;;;;;;22.50;9.32;;;;;;;-5.54;73.71;97917.66;5079083;28;20091;-80
2022/01/05 10:35:56;;;;;;;23.27;9.00;;;;;;;-5.78;73.48;97872.72;5060369;28;20048;-83
2022/01/05 10:38:28;;;;;;;23.40;9.02;;;;;;;-5.59;74.08;97900.56;5076330;28;20075;-84
2022/01/05 10:40:55;;;;;;;25.63;8.88;;;;;;;-5.60;74.29;97906.44;5058202;28;20063;-83
2022/01/05 10:43:22;;;;;;;23.42;9.15;;;;;;;-5.60;74.28;97886.09;5057098;28;20056;-83
2022/01/05 10:45:53;;;;;;;25.48;9.98;;;;;;;-5.65;74.28;97874.88;5057663;28;20052;-86
2022/01/05 10:48:24;;;;;;;24.10;10.05;;;;;;;-5.59;74.68;97877.66;5075822;28;20052;-86
2022/01/05 10:51:06;;;;;;;22.98;9.73;;;;;;;-5.61;74.25;97856.38;5076950;28;20547;-85
2022/01/05 10:53:33;;;;;;;21.88;9.73;;;;;;;-5.54;74.54;97854.91;5040523;28;20102;-85
2022/01/05 10:56:00;;;;;;;25.17;9.13;;;;;;;-5.52;74.55;97862.59;5080099;28;20056;-83
2022/01/05 10:58:41;;;;;;;21.42;8.70;;;;;;;-5.73;75.26;97827.09;5075455;28;20509;-81
2022/01/05 11:01:26;;;;;;;22.77;9.55;;;;;;;-5.54;75.00;97856.59;5073992;28;20491;-83
2022/01/05 11:03:53;;;;;;;20.38;8.65;;;;;;;-5.59;75.20;97839.50;5074566;28;20048;-81
2022/01/05 11:06:20;;;;;;;21.48;9.30;;;;;;;-5.52;75.23;97858.38;5074956;28;20147;-82
2022/01/05 11:09:00;;;;;;;23.52;10.43;;;;;;;-5.55;75.70;97837.91;5075052;28;20072;-82
2022/01/05 11:11:37;;;;;;;20.77;9.57;;;;;;;-5.50;75.50;97823.66;5074488;28;20049;-82
2022/01/05 11:14:10;;;;;;;19.38;8.75;;;;;;;-5.44;75.47;97825.53;5074757;28;20044;-82
2022/01/05 11:16:40;;;;;;;26.35;10.10;;;;;;;-5.40;75.60;97815.53;5074381;28;20092;-84
2022/01/05 11:19:20;;;;;;;21.25;9.75;;;;;;;-5.39;75.75;97814.72;5073871;28;20053;-82
2022/01/05 11:22:02;;;;;;;26.00;10.57;;;;;;;-5.37;75.76;97802.91;5073918;28;20429;-82
2022/01/05 11:24:31;;;;;;;;;;;;;;;-5.38;75.89;97787.56;5074648;28;20058;-83
2022/01/05 11:26:58;;;;;;;21.38;9.43;;;;;;;-5.42;75.78;97763.72;5074523;28;20416;-81
2022/01/05 11:29:25;;;;;;;23.35;9.18;;;;;;;-5.43;76.79;97756.03;5074074;28;20052;-82
2022/01/05 11:31:54;;;;;;;22.80;10.18;;;;;;;-5.45;76.46;97745.78;5057590;28;20517;-82